createdAt,value
2022-09-20T00:00:46.431Z,976.8
2022-09-20T00:01:52.663Z,976.8
2022-09-20T00:04:05.796Z,976.8
2022-09-20T00:05:11.623Z,976.8
2022-09-20T00:06:17.830Z,976.8
2022-09-20T00:07:24.159Z,976.8
2022-09-20T00:08:32.800Z,976.8
2022-09-20T00:09:36.752Z,976.8
2022-09-20T00:10:48.620Z,976.8
2022-09-20T00:12:01.715Z,976.8
2022-09-20T00:13:31.195Z,976.8
2022-09-20T00:14:27.826Z,976.8
2022-09-20T00:15:40.890Z,976.8
2022-09-20T00:16:54.059Z,976.8
2022-09-20T00:19:12.525Z,976.8
2022-09-20T00:20:18.823Z,976.8
2022-09-20T00:21:25.141Z,976.8
2022-09-20T00:22:31.418Z,976.9
2022-09-20T00:24:48.277Z,976.9
2022-09-20T00:25:50.276Z,976.9
2022-09-20T00:26:56.570Z,976.9
2022-09-20T00:29:09.143Z,976.9
2022-09-20T00:30:15.450Z,976.9
2022-09-20T00:31:21.811Z,976.9
2022-09-20T00:32:50.234Z,976.9
2022-09-20T00:33:46.680Z,976.8
2022-09-20T00:34:59.913Z,976.8
2022-09-20T00:36:13.061Z,976.9
2022-09-20T00:37:26.058Z,976.9
2022-09-20T00:38:39.651Z,976.9
2022-09-20T00:39:51.542Z,976.9
2022-09-20T00:41:03.403Z,976.9
2022-09-20T00:42:15.274Z,976.9
2022-09-20T00:44:27.850Z,976.9
2022-09-20T00:45:34.443Z,976.9
2022-09-20T00:46:40.697Z,976.9
2022-09-20T00:47:46.994Z,976.8
2022-09-20T00:48:53.289Z,976.8
2022-09-20T00:49:59.565Z,976.8
2022-09-20T00:51:05.870Z,976.8
2022-09-20T00:52:12.167Z,976.8
2022-09-20T00:53:18.803Z,976.8
2022-09-20T00:54:24.760Z,976.7
2022-09-20T00:55:31.073Z,976.7
2022-09-20T00:56:37.337Z,976.7
2022-09-20T00:58:49.954Z,976.7
2022-09-20T01:00:01.783Z,976.7
2022-09-20T01:01:14.956Z,976.7
2022-09-20T01:02:28.199Z,976.7
2022-09-20T01:03:41.185Z,976.7
2022-09-20T01:04:54.767Z,976.7
2022-09-20T01:06:13.431Z,976.7
2022-09-20T01:07:19.719Z,976.8
2022-09-20T01:08:37.691Z,976.7
2022-09-20T01:09:32.314Z,976.8
2022-09-20T01:10:38.625Z,976.7
2022-09-20T01:11:44.847Z,976.7
2022-09-20T01:13:57.465Z,976.7
2022-09-20T01:15:03.771Z,976.8
2022-09-20T01:16:10.103Z,976.8
2022-09-20T01:17:16.334Z,976.8
2022-09-20T01:19:28.921Z,976.8
2022-09-20T01:20:46.387Z,976.8
2022-09-20T01:21:59.459Z,976.8
2022-09-20T01:23:17.102Z,976.8
2022-09-20T01:24:25.596Z,976.8
2022-09-20T01:25:38.660Z,976.8
2022-09-20T01:26:57.344Z,976.9
2022-09-20T01:29:09.923Z,976.8
2022-09-20T01:30:16.186Z,976.8
2022-09-20T01:31:22.667Z,976.8
2022-09-20T01:32:28.940Z,976.8
2022-09-20T01:34:41.520Z,976.9
2022-09-20T01:35:47.810Z,976.8
2022-09-20T01:36:54.124Z,976.8
2022-09-20T01:39:06.706Z,976.9
2022-09-20T01:40:13.034Z,976.9
2022-09-20T01:41:24.904Z,976.8
2022-09-20T01:42:46.667Z,976.8
2022-09-20T01:43:50.999Z,976.8
2022-09-20T01:45:04.092Z,976.8
2022-09-20T01:46:17.208Z,976.9
2022-09-20T01:47:30.233Z,976.8
2022-09-20T01:48:42.122Z,976.9
2022-09-20T01:49:48.388Z,976.9
2022-09-20T01:50:54.679Z,976.9
2022-09-20T01:52:00.989Z,976.9
2022-09-20T01:53:25.038Z,976.9
2022-09-20T01:54:13.548Z,976.9
2022-09-20T01:55:19.861Z,976.9
2022-09-20T01:56:26.141Z,976.9
2022-09-20T01:57:32.427Z,976.9
2022-09-20T01:59:45.070Z,976.9
2022-09-20T02:00:51.367Z,976.9
2022-09-20T02:01:57.664Z,976.9
2022-09-20T02:04:10.215Z,976.9
2022-09-20T02:05:22.065Z,976.9
2022-09-20T02:06:33.947Z,976.9
2022-09-20T02:07:52.586Z,976.9
2022-09-20T02:09:05.690Z,976.9
2022-09-20T02:10:18.734Z,976.9
2022-09-20T02:11:31.834Z,976.9
2022-09-20T02:12:53.343Z,976.9
2022-09-20T02:13:57.961Z,976.9
2022-09-20T02:15:09.868Z,976.9
2022-09-20T02:16:16.179Z,976.9
2022-09-20T02:17:22.439Z,976.9
2022-09-20T02:18:38.956Z,976.9
2022-09-20T02:19:35.003Z,976.9
2022-09-20T02:20:41.296Z,976.9
2022-09-20T02:21:47.573Z,976.9
2022-09-20T02:24:00.159Z,976.9
2022-09-20T02:25:06.425Z,976.9
2022-09-20T02:26:12.753Z,976.9
2022-09-20T02:27:19.043Z,976.9
2022-09-20T02:28:25.318Z,976.9
2022-09-20T02:29:31.623Z,976.9
2022-09-20T02:30:37.934Z,976.9
2022-09-20T02:31:44.296Z,976.9
2022-09-20T02:33:56.793Z,976.9
2022-09-20T02:35:08.660Z,976.9
2022-09-20T02:36:21.722Z,976.9
2022-09-20T02:37:34.813Z,976.9
2022-09-20T02:38:47.883Z,976.9
2022-09-20T02:40:00.993Z,976.9
2022-09-20T02:41:19.614Z,977
2022-09-20T02:42:25.881Z,976.9
2022-09-20T02:44:38.468Z,976.9
2022-09-20T02:45:44.864Z,976.9
2022-09-20T02:46:51.061Z,976.9
2022-09-20T02:49:03.618Z,977
2022-09-20T02:50:09.920Z,977
2022-09-20T02:51:16.521Z,977
2022-09-20T02:52:22.799Z,977
2022-09-20T02:54:35.390Z,977
2022-09-20T02:55:47.286Z,977
2022-09-20T02:57:00.372Z,977
2022-09-20T02:58:25.008Z,977
2022-09-20T02:59:26.478Z,977
2022-09-20T03:00:39.559Z,977
2022-09-20T03:01:52.672Z,977
2022-09-20T03:04:10.802Z,977
2022-09-20T03:05:17.084Z,977
2022-09-20T03:06:23.363Z,977
2022-09-20T03:07:29.661Z,977
2022-09-20T03:09:42.237Z,977.1
2022-09-20T03:10:48.538Z,977.1
2022-09-20T03:11:54.831Z,977.1
2022-09-20T03:14:07.495Z,977.1
2022-09-20T03:15:13.721Z,977.1
2022-09-20T03:16:20.036Z,977.1
2022-09-20T03:17:31.921Z,977.1
2022-09-20T03:18:44.957Z,977.1
2022-09-20T03:19:58.021Z,977.2
2022-09-20T03:21:11.107Z,977.2
2022-09-20T03:22:24.206Z,977.2
2022-09-20T03:23:42.826Z,977.2
2022-09-20T03:24:49.116Z,977.2
2022-09-20T03:25:55.407Z,977.1
2022-09-20T03:27:01.688Z,977.1
2022-09-20T03:29:14.263Z,977.1
2022-09-20T03:30:20.574Z,977.1
2022-09-20T03:31:26.897Z,977.1
2022-09-20T03:32:33.138Z,977.1
2022-09-20T03:33:49.764Z,977.1
2022-09-20T03:34:45.735Z,977.1
2022-09-20T03:35:52.019Z,977.1
2022-09-20T03:36:58.320Z,977.1
2022-09-20T03:39:10.895Z,977.1
2022-09-20T03:40:22.817Z,977.1
2022-09-20T03:41:35.839Z,977.1
2022-09-20T03:44:02.001Z,977.1
2022-09-20T03:45:15.089Z,977.1
2022-09-20T03:46:28.175Z,977.1
2022-09-20T03:47:55.858Z,977.1
2022-09-20T03:49:07.222Z,977.1
2022-09-20T03:50:27.047Z,977.1
2022-09-20T03:51:46.902Z,977.1
2022-09-20T03:53:25.297Z,977.2
2022-09-20T03:54:18.649Z,977.2
2022-09-20T03:55:31.698Z,977.2
2022-09-20T03:56:44.786Z,977.2
2022-09-20T03:59:11.173Z,977.1
2022-09-20T04:00:24.243Z,977.1
2022-09-20T04:01:36.149Z,977.1
2022-09-20T04:03:09.548Z,977.1
2022-09-20T04:04:15.844Z,977.1
2022-09-20T04:05:36.154Z,977.1
2022-09-20T04:07:01.581Z,977.1
2022-09-20T04:08:17.271Z,977.1
2022-09-20T04:09:27.854Z,977.1
2022-09-20T04:10:40.942Z,977.1
2022-09-20T04:11:54.530Z,977.1
2022-09-20T04:13:26.363Z,977.1
2022-09-20T04:14:19.728Z,977.1
2022-09-20T04:15:25.969Z,977.1
2022-09-20T04:16:32.323Z,977.1
2022-09-20T04:18:44.850Z,977.1
2022-09-20T04:19:51.175Z,977.2
2022-09-20T04:20:57.441Z,977.2
2022-09-20T04:22:03.731Z,977.2
2022-09-20T04:24:16.301Z,977.2
2022-09-20T04:25:22.609Z,977.2
2022-09-20T04:26:34.495Z,977.2
2022-09-20T04:27:56.136Z,977.2
2022-09-20T04:29:00.826Z,977.3
2022-09-20T04:30:13.866Z,977.3
2022-09-20T04:31:27.007Z,977.3
2022-09-20T04:32:40.535Z,977.3
2022-09-20T04:33:52.401Z,977.3
2022-09-20T04:34:58.742Z,977.3
2022-09-20T04:36:04.977Z,977.4
2022-09-20T04:37:11.274Z,977.4
2022-09-20T04:39:23.854Z,977.4
2022-09-20T04:40:30.202Z,977.4
2022-09-20T04:41:36.439Z,977.4
2022-09-20T04:43:49.008Z,977.4
2022-09-20T04:44:55.348Z,977.4
2022-09-20T04:46:01.693Z,977.4
2022-09-20T04:47:19.257Z,977.4
2022-09-20T04:48:39.115Z,977.4
2022-09-20T04:49:45.431Z,977.4
2022-09-20T04:50:59.052Z,977.4
2022-09-20T04:52:12.071Z,977.4
2022-09-20T04:53:38.736Z,977.4
2022-09-20T04:54:37.028Z,977.4
2022-09-20T04:55:43.326Z,977.4
2022-09-20T04:56:49.617Z,977.4
2022-09-20T04:59:02.418Z,977.4
2022-09-20T05:00:08.731Z,977.4
2022-09-20T05:01:15.073Z,977.5
2022-09-20T05:02:21.378Z,977.5
2022-09-20T05:04:33.891Z,977.5
2022-09-20T05:05:40.123Z,977.5
2022-09-20T05:06:52.077Z,977.5
2022-09-20T05:09:18.349Z,977.5
2022-09-20T05:10:31.445Z,977.6
2022-09-20T05:11:45.017Z,977.6
2022-09-20T05:13:06.701Z,977.6
2022-09-20T05:14:11.136Z,977.6
2022-09-20T05:15:23.020Z,977.6
2022-09-20T05:16:43.888Z,977.6
2022-09-20T05:18:19.406Z,977.6
2022-09-20T05:19:23.055Z,977.6
2022-09-20T05:20:48.492Z,977.7
2022-09-20T05:22:01.781Z,977.7
2022-09-20T05:24:28.400Z,977.7
2022-09-20T05:25:41.481Z,977.7
2022-09-20T05:26:54.545Z,977.7
2022-09-20T05:29:21.210Z,977.7
2022-09-20T05:30:33.093Z,977.7
2022-09-20T05:31:52.985Z,977.7
2022-09-20T05:33:25.195Z,977.7
2022-09-20T05:34:32.625Z,977.8
2022-09-20T05:35:58.591Z,977.8
2022-09-20T05:37:11.809Z,977.8
2022-09-20T05:38:41.567Z,977.8
2022-09-20T05:39:37.958Z,977.8
2022-09-20T05:40:51.537Z,977.8
2022-09-20T05:42:04.595Z,977.9
2022-09-20T05:44:22.750Z,977.9
2022-09-20T05:45:29.095Z,977.9
2022-09-20T05:46:35.334Z,977.9
2022-09-20T05:47:41.641Z,977.9
2022-09-20T05:48:47.943Z,977.9
2022-09-20T05:49:54.241Z,977.9
2022-09-20T05:51:03.560Z,978
2022-09-20T05:52:06.819Z,978
2022-09-20T05:53:13.336Z,978
2022-09-20T05:54:19.379Z,978
2022-09-20T05:55:26.466Z,978
2022-09-20T05:56:32.253Z,978
2022-09-20T05:58:44.881Z,978
2022-09-20T05:59:51.128Z,978
2022-09-20T06:00:57.494Z,978
2022-09-20T06:02:03.749Z,978
2022-09-20T06:04:16.342Z,978.1
2022-09-20T06:05:28.230Z,978.1
2022-09-20T06:06:41.304Z,978.1
2022-09-20T06:09:07.470Z,978.1
2022-09-20T06:10:20.564Z,978.1
2022-09-20T06:11:33.584Z,978.1
2022-09-20T06:13:05.809Z,978.2
2022-09-20T06:14:12.102Z,978.2
2022-09-20T06:15:31.911Z,978.2
2022-09-20T06:16:51.833Z,978.2
2022-09-20T06:18:25.805Z,978.2
2022-09-20T06:19:30.297Z,978.2
2022-09-20T06:20:43.379Z,978.2
2022-09-20T06:21:57.589Z,978.2
2022-09-20T06:23:25.264Z,978.2
2022-09-20T06:24:22.627Z,978.2
2022-09-20T06:25:41.239Z,978.2
2022-09-20T06:26:47.643Z,978.2
2022-09-20T06:27:54.242Z,978.2
2022-09-20T06:29:00.103Z,978.2
2022-09-20T06:30:06.404Z,978.2
2022-09-20T06:31:12.722Z,978.2
2022-09-20T06:32:19.000Z,978.2
2022-09-20T06:34:31.584Z,978.3
2022-09-20T06:35:37.849Z,978.3
2022-09-20T06:36:44.532Z,978.3
2022-09-20T06:38:57.117Z,978.3
2022-09-20T06:40:09.076Z,978.3
2022-09-20T06:41:22.064Z,978.3
2022-09-20T06:42:35.142Z,978.3
2022-09-20T06:43:48.191Z,978.3
2022-09-20T06:45:01.288Z,978.3
2022-09-20T06:46:14.389Z,978.3
2022-09-20T06:47:26.213Z,978.3
2022-09-20T06:48:44.494Z,978.3
2022-09-20T06:49:38.804Z,978.3
2022-09-20T06:50:45.078Z,978.3
2022-09-20T06:51:51.387Z,978.3
2022-09-20T06:54:03.983Z,978.3
2022-09-20T06:55:10.271Z,978.3
2022-09-20T06:56:16.569Z,978.3
2022-09-20T06:57:22.854Z,978.3
2022-09-20T06:59:35.456Z,978.3
2022-09-20T07:00:47.378Z,978.3
2022-09-20T07:02:00.423Z,978.3
2022-09-20T07:03:25.620Z,978.3
2022-09-20T07:04:26.706Z,978.3
2022-09-20T07:05:39.764Z,978.3
2022-09-20T07:06:53.382Z,978.4
2022-09-20T07:09:11.559Z,978.4
2022-09-20T07:10:17.820Z,978.4
2022-09-20T07:11:24.132Z,978.4
2022-09-20T07:12:30.394Z,978.4
2022-09-20T07:14:43.003Z,978.4
2022-09-20T07:15:49.292Z,978.4
2022-09-20T07:16:55.603Z,978.4
2022-09-20T07:19:08.152Z,978.5
2022-09-20T07:20:16.529Z,978.5
2022-09-20T07:21:20.738Z,978.5
2022-09-20T07:22:33.017Z,978.5
2022-09-20T07:23:46.114Z,978.5
2022-09-20T07:24:59.142Z,978.5
2022-09-20T07:26:12.245Z,978.5
2022-09-20T07:27:28.687Z,978.5
2022-09-20T07:28:46.195Z,978.5
2022-09-20T07:29:50.253Z,978.5
2022-09-20T07:30:56.560Z,978.6
2022-09-20T07:32:02.906Z,978.6
2022-09-20T07:34:15.662Z,978.6
2022-09-20T07:35:21.955Z,978.6
2022-09-20T07:36:28.244Z,978.6
2022-09-20T07:37:37.064Z,978.6
2022-09-20T07:39:47.130Z,978.7
2022-09-20T07:40:53.484Z,978.7
2022-09-20T07:42:05.373Z,978.7
2022-09-20T07:43:25.344Z,978.7
2022-09-20T07:44:31.527Z,978.7
2022-09-20T07:45:44.687Z,978.8
2022-09-20T07:46:57.643Z,978.7
2022-09-20T07:48:19.179Z,978.8
2022-09-20T07:49:23.780Z,978.8
2022-09-20T07:50:35.683Z,978.8
2022-09-20T07:51:41.972Z,978.8
2022-09-20T07:53:54.529Z,978.8
2022-09-20T07:55:00.842Z,978.8
2022-09-20T07:56:07.130Z,978.8
2022-09-20T07:57:13.414Z,978.8
2022-09-20T07:59:26.049Z,978.8
2022-09-20T08:00:32.278Z,978.8
2022-09-20T08:01:38.584Z,978.9
2022-09-20T08:02:44.907Z,978.9
2022-09-20T08:03:56.782Z,978.9
2022-09-20T08:05:09.837Z,978.9
2022-09-20T08:06:22.892Z,978.9
2022-09-20T08:07:35.986Z,978.9
2022-09-20T08:08:49.028Z,978.9
2022-09-20T08:10:07.694Z,978.9
2022-09-20T08:11:13.992Z,978.9
2022-09-20T08:14:33.215Z,978.9
2022-09-20T08:15:39.480Z,978.9
2022-09-20T08:16:51.380Z,979
2022-09-20T08:19:03.951Z,979
2022-09-20T08:20:10.221Z,979
2022-09-20T08:21:16.521Z,979
2022-09-20T08:22:28.404Z,979
2022-09-20T08:23:51.986Z,979
2022-09-20T08:24:54.571Z,979
2022-09-20T08:26:07.830Z,979
2022-09-20T08:27:20.695Z,979
2022-09-20T08:29:46.844Z,979
2022-09-20T08:30:58.701Z,979
2022-09-20T08:32:18.580Z,979
2022-09-20T08:33:45.221Z,979
2022-09-20T08:34:58.269Z,979
2022-09-20T08:36:16.936Z,979
2022-09-20T08:37:30.049Z,979
2022-09-20T08:39:57.726Z,979
2022-09-20T08:41:09.185Z,979
2022-09-20T08:42:28.014Z,979
2022-09-20T08:43:45.468Z,979.1
2022-09-20T08:44:45.248Z,979.1
2022-09-20T08:45:46.871Z,979.1
2022-09-20T08:46:53.079Z,979.1
2022-09-20T08:49:10.594Z,979.1
2022-09-20T08:50:17.210Z,979.1
2022-09-20T08:51:22.546Z,979.1
2022-09-20T08:52:24.617Z,979.1
2022-09-20T08:53:34.965Z,979.1
2022-09-20T08:54:37.249Z,979.1
2022-09-20T08:55:43.504Z,979.1
2022-09-20T08:56:49.792Z,979.1
2022-09-20T08:59:02.372Z,979.1
2022-09-20T09:00:14.233Z,979.2
2022-09-20T09:01:27.367Z,979.2
2022-09-20T09:02:40.421Z,979.2
2022-09-20T09:03:53.442Z,979.2
2022-09-20T09:05:06.514Z,979.2
2022-09-20T09:06:19.601Z,979.2
2022-09-20T09:07:31.492Z,979.3
2022-09-20T09:09:44.066Z,979.3
2022-09-20T09:10:50.438Z,979.3
2022-09-20T09:11:56.787Z,979.3
2022-09-20T09:14:09.229Z,979.3
2022-09-20T09:15:17.513Z,979.3
2022-09-20T09:16:25.815Z,979.3
2022-09-20T09:17:28.207Z,979.3
2022-09-20T09:18:42.110Z,979.3
2022-09-20T09:19:40.695Z,979.3
2022-09-20T09:20:52.556Z,979.4
2022-09-20T09:22:05.640Z,979.4
2022-09-20T09:23:32.587Z,979.4
2022-09-20T09:24:31.770Z,979.4
2022-09-20T09:25:44.832Z,979.4
2022-09-20T09:26:57.921Z,979.4
2022-09-20T09:29:16.083Z,979.4
2022-09-20T09:30:22.393Z,979.4
2022-09-20T09:31:28.717Z,979.4
2022-09-20T09:32:34.971Z,979.4
2022-09-20T09:34:47.564Z,979.4
2022-09-20T09:35:54.294Z,979.4
2022-09-20T09:37:00.586Z,979.4
2022-09-20T09:39:13.172Z,979.4
2022-09-20T09:40:19.511Z,979.4
2022-09-20T09:41:25.765Z,979.4
2022-09-20T09:42:32.372Z,979.4
2022-09-20T09:43:54.667Z,979.3
2022-09-20T09:44:57.333Z,979.3
2022-09-20T09:46:10.450Z,979.3
2022-09-20T09:47:23.467Z,979.3
2022-09-20T09:49:49.622Z,979.3
2022-09-20T09:51:02.672Z,979.3
2022-09-20T09:52:14.578Z,979.3
2022-09-20T09:53:41.176Z,979.3
2022-09-20T09:54:54.261Z,979.3
2022-09-20T09:56:14.466Z,979.3
2022-09-20T09:57:32.780Z,979.3
2022-09-20T09:58:48.065Z,979.3
2022-09-20T09:59:59.112Z,979.3
2022-09-20T10:01:12.034Z,979.3
2022-09-20T10:02:25.124Z,979.3
2022-09-20T10:03:54.149Z,979.3
2022-09-20T10:04:50.010Z,979.3
2022-09-20T10:05:56.399Z,979.3
2022-09-20T10:07:02.655Z,979.3
2022-09-20T10:09:15.240Z,979.3
2022-09-20T10:10:21.521Z,979.3
2022-09-20T10:11:27.818Z,979.3
2022-09-20T10:12:34.174Z,979.4
2022-09-20T10:14:46.751Z,979.4
2022-09-20T10:15:53.062Z,979.4
2022-09-20T10:17:04.902Z,979.4
2022-09-20T10:18:26.652Z,979.4
2022-09-20T10:19:31.083Z,979.4
2022-09-20T10:20:44.153Z,979.4
2022-09-20T10:21:57.227Z,979.4
2022-09-20T10:23:45.370Z,979.3
2022-09-20T10:24:23.347Z,979.4
2022-09-20T10:25:35.235Z,979.4
2022-09-20T10:26:41.526Z,979.4
2022-09-20T10:27:47.822Z,979.4
2022-09-20T10:28:54.113Z,979.4
2022-09-20T10:30:00.392Z,979.4
2022-09-20T10:31:06.732Z,979.4
2022-09-20T10:32:14.986Z,979.4
2022-09-20T10:34:25.563Z,979.4
2022-09-20T10:35:31.882Z,979.4
2022-09-20T10:36:38.135Z,979.4
2022-09-20T10:37:48.549Z,979.4
2022-09-20T10:38:50.732Z,979.5
2022-09-20T10:39:57.110Z,979.5
2022-09-20T10:41:03.541Z,979.5
2022-09-20T10:42:09.839Z,979.5
2022-09-20T10:44:22.461Z,979.5
2022-09-20T10:46:03.673Z,979.5
2022-09-20T10:46:47.435Z,979.5
2022-09-20T10:48:08.891Z,979.5
2022-09-20T10:49:13.493Z,979.5
2022-09-20T10:50:26.627Z,979.5
2022-09-20T10:51:39.655Z,979.5
2022-09-20T10:52:51.978Z,979.5
2022-09-20T10:53:58.261Z,979.5
2022-09-20T10:55:04.553Z,979.5
2022-09-20T10:56:10.871Z,979.5
2022-09-20T10:57:17.125Z,979.5
2022-09-20T10:59:29.721Z,979.5
2022-09-20T11:00:36.002Z,979.5
2022-09-20T11:01:42.288Z,979.5
2022-09-20T11:02:48.623Z,979.5
2022-09-20T11:03:54.867Z,979.5
2022-09-20T11:05:01.164Z,979.5
2022-09-20T11:06:07.466Z,979.4
2022-09-20T11:07:13.765Z,979.4
2022-09-20T11:09:26.373Z,979.4
2022-09-20T11:10:38.194Z,979.4
2022-09-20T11:11:51.259Z,979.4
2022-09-20T11:14:17.407Z,979.5
2022-09-20T11:15:30.494Z,979.5
2022-09-20T11:16:43.635Z,979.5
2022-09-20T11:18:10.724Z,979.5
2022-09-20T11:19:22.087Z,979.5
2022-09-20T11:20:41.916Z,979.5
2022-09-20T11:22:01.775Z,979.6
2022-09-20T11:23:37.082Z,979.6
2022-09-20T11:24:33.512Z,979.6
2022-09-20T11:25:46.567Z,979.6
2022-09-20T11:26:59.644Z,979.6
2022-09-20T11:29:25.788Z,979.6
2022-09-20T11:30:38.848Z,979.6
2022-09-20T11:31:50.811Z,979.6
2022-09-20T11:33:24.147Z,979.7
2022-09-20T11:34:30.940Z,979.7
2022-09-20T11:35:50.771Z,979.7
2022-09-20T11:37:16.235Z,979.6
2022-09-20T11:38:31.869Z,979.6
2022-09-20T11:39:42.414Z,979.7
2022-09-20T11:40:55.449Z,979.6
2022-09-20T11:42:09.023Z,979.7
2022-09-20T11:44:33.967Z,979.6
2022-09-20T11:45:45.943Z,979.6
2022-09-20T11:46:52.131Z,979.6
2022-09-20T11:49:04.726Z,979.6
2022-09-20T11:50:11.016Z,979.6
2022-09-20T11:51:17.661Z,979.6
2022-09-20T11:52:23.954Z,979.6
2022-09-20T11:54:36.515Z,979.6
2022-09-20T11:55:42.851Z,979.6
2022-09-20T11:56:54.707Z,979.5
2022-09-20T11:58:16.282Z,979.5
2022-09-20T11:59:20.831Z,979.5
2022-09-20T12:00:34.376Z,979.5
2022-09-20T12:01:47.504Z,979.5
2022-09-20T12:03:17.062Z,979.5
2022-09-20T12:04:31.616Z,979.5
2022-09-20T12:05:26.003Z,979.5
2022-09-20T12:06:32.303Z,979.5
2022-09-20T12:07:38.595Z,979.5
2022-09-20T12:09:51.187Z,979.5
2022-09-20T12:10:57.503Z,979.5
2022-09-20T12:12:03.775Z,979.6
2022-09-20T12:14:16.349Z,979.6
2022-09-20T12:15:22.625Z,979.6
2022-09-20T12:16:28.965Z,979.6
2022-09-20T12:17:35.218Z,979.6
2022-09-20T12:18:49.510Z,979.6
2022-09-20T12:20:00.206Z,979.6
2022-09-20T12:21:16.299Z,979.6
2022-09-20T12:22:26.814Z,979.6
2022-09-20T12:23:50.775Z,979.5
2022-09-20T12:24:53.480Z,979.5
2022-09-20T12:26:05.422Z,979.5
2022-09-20T12:27:17.237Z,979.5
2022-09-20T12:29:35.424Z,979.5
2022-09-20T12:30:41.699Z,979.6
2022-09-20T12:31:48.023Z,979.6
2022-09-20T12:32:54.272Z,979.6
2022-09-20T12:34:00.584Z,979.6
2022-09-20T12:35:06.874Z,979.6
2022-09-20T12:36:13.149Z,979.6
2022-09-20T12:37:19.436Z,979.6
2022-09-20T12:39:32.037Z,979.6
2022-09-20T12:40:38.340Z,979.6
2022-09-20T12:41:44.625Z,979.5
2022-09-20T12:42:50.900Z,979.5
2022-09-20T12:43:57.188Z,979.5
2022-09-20T12:45:03.482Z,979.5
2022-09-20T12:46:12.115Z,979.5
2022-09-20T12:47:16.059Z,979.5
2022-09-20T12:49:28.656Z,979.5
2022-09-20T12:50:40.546Z,979.5
2022-09-20T12:51:53.618Z,979.5
2022-09-20T12:53:25.150Z,979.5
2022-09-20T12:54:19.742Z,979.5
2022-09-20T12:55:32.810Z,979.4
2022-09-20T12:56:45.876Z,979.4
2022-09-20T12:59:04.575Z,979.4
2022-09-20T13:00:10.820Z,979.4
2022-09-20T13:01:17.144Z,979.4
2022-09-20T13:02:23.461Z,979.4
2022-09-20T13:04:36.324Z,979.5
2022-09-20T13:05:42.623Z,979.5
2022-09-20T13:06:48.912Z,979.5
2022-09-20T13:09:01.498Z,979.5
2022-09-20T13:10:07.782Z,979.5
2022-09-20T13:11:14.098Z,979.5
2022-09-20T13:12:25.946Z,979.5
2022-09-20T13:13:39.011Z,979.5
2022-09-20T13:14:52.364Z,979.5
2022-09-20T13:16:05.444Z,979.5
2022-09-20T13:17:18.967Z,979.5
2022-09-20T13:19:43.925Z,979.5
2022-09-20T13:20:50.210Z,979.6
2022-09-20T13:21:56.512Z,979.6
2022-09-20T13:24:09.091Z,979.6
2022-09-20T13:25:15.433Z,979.6
2022-09-20T13:26:21.670Z,979.6
2022-09-20T13:27:27.982Z,979.7
2022-09-20T13:29:40.548Z,979.7
2022-09-20T13:30:46.875Z,979.7
2022-09-20T13:31:53.158Z,979.7
2022-09-20T13:34:05.738Z,979.6
2022-09-20T13:35:17.583Z,979.6
2022-09-20T13:36:30.673Z,979.6
2022-09-20T13:37:43.752Z,979.6
2022-09-20T13:38:56.797Z,979.6
2022-09-20T13:40:09.922Z,979.7
2022-09-20T13:41:22.950Z,979.7
2022-09-20T13:42:34.829Z,979.7
2022-09-20T13:44:47.823Z,979.7
2022-09-20T13:45:54.273Z,979.6
2022-09-20T13:47:00.409Z,979.6
2022-09-20T13:49:12.979Z,979.6
2022-09-20T13:50:19.283Z,979.6
2022-09-20T13:51:25.916Z,979.6
2022-09-20T13:52:32.199Z,979.6
2022-09-20T13:54:44.779Z,979.7
2022-09-20T13:55:51.068Z,979.7
2022-09-20T13:57:02.951Z,979.7
2022-09-20T13:58:25.258Z,979.7
2022-09-20T13:59:29.062Z,979.7
2022-09-20T14:00:42.174Z,979.7
2022-09-20T14:01:55.316Z,979.7
2022-09-20T14:03:25.943Z,979.8
2022-09-20T14:04:21.372Z,979.8
2022-09-20T14:05:33.235Z,979.8
2022-09-20T14:06:39.534Z,979.8
2022-09-20T14:07:45.839Z,979.8
2022-09-20T14:09:58.413Z,979.8
2022-09-20T14:11:04.698Z,979.8
2022-09-20T14:12:10.981Z,979.7
2022-09-20T14:14:23.641Z,979.8
2022-09-20T14:15:29.875Z,979.8
2022-09-20T14:16:36.162Z,979.8
2022-09-20T14:17:42.516Z,979.8
2022-09-20T14:18:56.768Z,979.9
2022-09-20T14:20:07.394Z,979.9
2022-09-20T14:21:20.461Z,980
2022-09-20T14:22:33.903Z,980
2022-09-20T14:24:03.641Z,980
2022-09-20T14:25:00.556Z,980.1
2022-09-20T14:26:12.432Z,980.1
2022-09-20T14:27:18.725Z,980.2
2022-09-20T14:29:31.304Z,980.2
2022-09-20T14:30:37.603Z,980.2
2022-09-20T14:31:43.967Z,980.2
2022-09-20T14:33:56.553Z,980.2
2022-09-20T14:35:02.754Z,980.1
2022-09-20T14:36:09.054Z,980.2
2022-09-20T14:37:15.348Z,980.2
2022-09-20T14:39:27.919Z,980.2
2022-09-20T14:40:39.851Z,980.2
2022-09-20T14:41:52.883Z,980.2
2022-09-20T14:44:28.689Z,980.2
2022-09-20T14:44:28.694Z,980.1
2022-09-20T14:47:58.416Z,980.1
2022-09-20T14:49:11.322Z,980.1
2022-09-20T14:50:33.629Z,980.1
2022-09-20T14:51:56.582Z,980.1
2022-09-20T14:53:02.891Z,980.1
2022-09-20T14:54:22.730Z,980.1
2022-09-20T14:55:42.591Z,980.2
2022-09-20T14:57:01.235Z,980.2
2022-09-20T14:58:07.535Z,980.2
2022-09-20T14:59:20.592Z,980.2
2022-09-20T15:00:33.713Z,980.1
2022-09-20T15:01:48.999Z,980.1
2022-09-20T15:02:59.831Z,980.1
2022-09-20T15:04:11.804Z,980.1
2022-09-20T15:05:18.278Z,980
2022-09-20T15:07:30.684Z,980.1
2022-09-20T15:08:36.977Z,980
2022-09-20T15:09:43.247Z,980
2022-09-20T15:10:49.579Z,979.9
2022-09-20T15:11:55.880Z,979.9
2022-09-20T15:13:07.741Z,979.9
2022-09-20T15:14:14.039Z,979.9
2022-09-20T15:15:20.342Z,979.9
2022-09-20T15:17:32.912Z,979.9
2022-09-20T15:18:44.823Z,979.9
2022-09-20T15:19:58.186Z,979.9
2022-09-20T15:22:24.339Z,980
2022-09-20T15:23:37.378Z,980.1
2022-09-20T15:24:50.429Z,980.1
2022-09-20T15:26:17.542Z,980.1
2022-09-20T15:27:28.934Z,980.1
2022-09-20T15:28:48.815Z,980.2
2022-09-20T15:30:09.147Z,980.2
2022-09-20T15:31:44.275Z,980.2
2022-09-20T15:32:42.546Z,980.2
2022-09-20T15:33:53.942Z,980.2
2022-09-20T15:35:07.016Z,980.3
2022-09-20T15:37:33.171Z,980.3
2022-09-20T15:38:46.228Z,980.2
2022-09-20T15:39:58.195Z,980.2
2022-09-20T15:41:25.213Z,980.2
2022-09-20T15:42:35.438Z,980.3
2022-09-20T15:43:55.310Z,980.3
2022-09-20T15:45:15.140Z,980.3
2022-09-20T15:46:38.693Z,980.3
2022-09-20T15:47:53.620Z,980.3
2022-09-20T15:49:06.868Z,980.3
2022-09-20T15:50:19.777Z,980.3
2022-09-20T15:51:49.320Z,980.3
2022-09-20T15:52:45.912Z,980.3
2022-09-20T15:53:58.989Z,980.3
2022-09-20T15:55:11.387Z,980.3
2022-09-20T15:57:23.953Z,980.3
2022-09-20T15:58:33.608Z,980.3
2022-09-20T15:59:36.531Z,980.3
2022-09-20T16:00:42.934Z,980.3
2022-09-20T16:01:51.885Z,980.3
2022-09-20T16:02:55.424Z,980.3
2022-09-20T16:04:01.710Z,980.3
2022-09-20T16:05:07.993Z,980.3
2022-09-20T16:07:20.595Z,980.3
2022-09-20T16:08:32.498Z,980.3
2022-09-20T16:09:45.521Z,980.3
2022-09-20T16:10:58.801Z,980.3
2022-09-20T16:12:11.866Z,980.3
2022-09-20T16:13:24.928Z,980.3
2022-09-20T16:14:44.115Z,980.3
2022-09-20T16:15:50.416Z,980.3
2022-09-20T16:17:07.015Z,980.3
2022-09-20T16:18:02.995Z,980.4
2022-09-20T16:19:09.312Z,980.4
2022-09-20T16:20:15.575Z,980.4
2022-09-20T16:22:28.167Z,980.4
2022-09-20T16:23:34.451Z,980.4
2022-09-20T16:24:40.747Z,980.5
2022-09-20T16:25:47.021Z,980.5
2022-09-20T16:27:59.618Z,980.5
2022-09-20T16:29:11.472Z,980.5
2022-09-20T16:30:24.576Z,980.5
2022-09-20T16:31:43.007Z,980.6
2022-09-20T16:32:51.094Z,980.6
2022-09-20T16:34:04.147Z,980.6
2022-09-20T16:35:17.739Z,980.6
2022-09-20T16:37:35.901Z,980.6
2022-09-20T16:38:42.207Z,980.6
2022-09-20T16:39:48.527Z,980.6
2022-09-20T16:40:54.852Z,980.6
2022-09-20T16:42:01.151Z,980.6
2022-09-20T16:43:12.060Z,980.6
2022-09-20T16:44:13.660Z,980.7
2022-09-20T16:45:19.986Z,980.7
2022-09-20T16:47:32.525Z,980.7
2022-09-20T16:48:38.868Z,980.7
2022-09-20T16:49:45.130Z,980.7
2022-09-20T16:50:51.457Z,980.7
2022-09-20T16:53:03.996Z,980.7
2022-09-20T16:54:15.868Z,980.8
2022-09-20T16:55:28.970Z,980.8
2022-09-20T16:56:50.469Z,980.8
2022-09-20T16:57:55.082Z,980.8
2022-09-20T16:59:08.160Z,980.8
2022-09-20T17:00:21.252Z,980.8
2022-09-20T17:02:43.570Z,980.8
2022-09-20T17:03:50.334Z,980.9
2022-09-20T17:04:52.056Z,980.9
2022-09-20T17:07:04.586Z,980.9
2022-09-20T17:08:10.866Z,980.9
2022-09-20T17:09:17.131Z,980.9